createdAt,value
2023-02-08T00:00:39.433Z,11.35
2023-02-08T00:03:06.381Z,10.80
2023-02-08T00:05:33.403Z,11.98
2023-02-08T00:08:00.054Z,10.75
2023-02-08T00:10:26.735Z,13.27
2023-02-08T00:12:53.333Z,9.55
2023-02-08T00:15:20.161Z,10.57
2023-02-08T00:17:46.853Z,10.18
2023-02-08T00:20:13.973Z,10.65
2023-02-08T00:22:40.650Z,10.32
2023-02-08T00:25:08.262Z,9.27
2023-02-08T00:27:34.943Z,10.98
2023-02-08T00:30:01.659Z,10.93
2023-02-08T00:32:28.328Z,10.40
2023-02-08T00:34:55.012Z,9.98
2023-02-08T00:37:21.641Z,11.10
2023-02-08T00:39:48.367Z,9.68
2023-02-08T00:42:14.973Z,10.07
2023-02-08T00:44:41.553Z,10.63
2023-02-08T00:47:08.191Z,9.30
2023-02-08T00:49:34.987Z,10.57
2023-02-08T00:52:01.647Z,10.10
2023-02-08T00:54:28.258Z,14.02
2023-02-08T00:56:54.918Z,11.10
2023-02-08T00:59:21.612Z,12.07
2023-02-08T01:01:48.457Z,9.95
2023-02-08T01:04:15.170Z,11.10
2023-02-08T01:06:41.862Z,9.73
2023-02-08T01:09:08.519Z,9.43
2023-02-08T01:11:35.281Z,10.90
2023-02-08T01:14:02.086Z,10.18
2023-02-08T01:16:31.665Z,10.07
2023-02-08T01:19:00.329Z,9.95
2023-02-08T01:21:30.757Z,9.90
2023-02-08T01:23:57.694Z,9.07
2023-02-08T01:26:25.982Z,10.15
2023-02-08T01:28:53.749Z,8.52
2023-02-08T01:31:28.071Z,9.68
2023-02-08T01:33:55.866Z,10.07
2023-02-08T01:36:22.970Z,10.40
2023-02-08T01:38:49.757Z,9.27
2023-02-08T01:41:30.586Z,10.23
2023-02-08T01:44:12.268Z,9.77
2023-02-08T01:46:41.378Z,9.95
2023-02-08T01:49:28.409Z,10.63
2023-02-08T01:52:13.756Z,11.02
2023-02-08T01:54:49.973Z,10.10
2023-02-08T01:57:17.132Z,9.95
2023-02-08T01:59:52.669Z,9.63
2023-02-08T02:02:22.131Z,9.77
2023-02-08T02:04:50.398Z,8.50
2023-02-08T02:07:19.115Z,10.30
2023-02-08T02:09:53.143Z,9.70
2023-02-08T02:12:21.235Z,9.23
2023-02-08T02:14:48.109Z,8.90
2023-02-08T02:17:18.436Z,9.13
2023-02-08T02:20:03.616Z,11.60
2023-02-08T02:25:33.059Z,8.60
2023-02-08T02:28:30.593Z,9.10
2023-02-08T02:31:15.477Z,8.82
2023-02-08T02:34:10.080Z,8.57
2023-02-08T02:36:39.313Z,8.38
2023-02-08T02:39:15.870Z,8.18
2023-02-08T02:42:25.831Z,7.47
2023-02-08T02:45:26.869Z,8.05
2023-02-08T02:48:10.416Z,9.75
2023-02-08T02:50:52.356Z,7.82
2023-02-08T02:53:34.049Z,7.70
2023-02-08T02:56:12.411Z,8.93
2023-02-08T02:58:41.061Z,9.02
2023-02-08T03:01:07.843Z,10.15
2023-02-08T03:03:35.369Z,8.93
2023-02-08T03:06:09.654Z,8.65
2023-02-08T03:08:56.633Z,8.65
2023-02-08T03:11:26.777Z,8.65
2023-02-08T03:14:18.178Z,7.63
2023-02-08T03:17:03.097Z,9.95
2023-02-08T03:19:41.242Z,8.60
2023-02-08T03:22:21.190Z,8.55
2023-02-08T03:25:03.763Z,8.55
2023-02-08T03:27:44.835Z,8.05
2023-02-08T03:30:28.570Z,8.45
2023-02-08T03:33:06.884Z,9.02
2023-02-08T03:35:52.405Z,9.10
2023-02-08T03:38:37.759Z,7.93
2023-02-08T03:41:07.613Z,8.60
2023-02-08T03:43:45.001Z,8.73
2023-02-08T03:46:18.929Z,8.38
2023-02-08T03:48:54.755Z,8.77
2023-02-08T03:51:23.291Z,9.50
2023-02-08T03:53:53.743Z,8.93
2023-02-08T03:56:28.815Z,8.98
2023-02-08T03:59:02.912Z,9.73
2023-02-08T04:01:33.662Z,8.75
2023-02-08T04:04:01.202Z,10.43
2023-02-08T04:06:28.106Z,9.80
2023-02-08T04:08:56.164Z,9.70
2023-02-08T04:11:22.817Z,8.75
2023-02-08T04:13:49.448Z,8.48
2023-02-08T04:16:16.079Z,9.23
2023-02-08T04:18:43.180Z,9.23
2023-02-08T04:21:09.827Z,8.52
2023-02-08T04:23:36.506Z,8.23
2023-02-08T04:26:04.190Z,8.77
2023-02-08T04:28:31.010Z,8.45
2023-02-08T04:30:58.117Z,8.57
2023-02-08T04:33:24.955Z,7.60
2023-02-08T04:35:52.278Z,7.82
2023-02-08T04:38:19.051Z,8.68
2023-02-08T04:40:45.683Z,9.15
2023-02-08T04:43:12.342Z,8.57
2023-02-08T04:45:39.044Z,7.38
2023-02-08T04:48:07.438Z,8.70
2023-02-08T04:50:35.128Z,7.97
2023-02-08T04:53:01.926Z,9.15
2023-02-08T04:55:28.650Z,8.32
2023-02-08T04:57:55.326Z,8.15
2023-02-08T05:00:22.033Z,7.95
2023-02-08T05:02:52.137Z,7.85
2023-02-08T05:05:18.933Z,6.93
2023-02-08T05:07:45.710Z,7.15
2023-02-08T05:10:12.364Z,8.80
2023-02-08T05:12:39.058Z,9.00
2023-02-08T05:15:05.851Z,7.90
2023-02-08T05:17:32.503Z,7.18
2023-02-08T05:19:59.219Z,8.23
2023-02-08T05:22:26.011Z,8.38
2023-02-08T05:24:52.699Z,8.40
2023-02-08T05:27:19.331Z,8.02
2023-02-08T05:29:46.000Z,8.02
2023-02-08T05:32:12.891Z,8.35
2023-02-08T05:34:39.811Z,7.72
2023-02-08T05:37:06.502Z,7.18
2023-02-08T05:39:33.146Z,8.90
2023-02-08T05:41:59.781Z,7.53
2023-02-08T05:44:26.476Z,7.95
2023-02-08T05:46:53.177Z,8.30
2023-02-08T05:49:19.900Z,7.88
2023-02-08T05:51:46.699Z,7.60
2023-02-08T05:54:13.315Z,7.70
2023-02-08T05:56:40.009Z,8.07
2023-02-08T05:59:06.652Z,6.80
2023-02-08T06:01:33.357Z,7.90
2023-02-08T06:04:00.644Z,9.77
2023-02-08T06:06:28.177Z,10.20
2023-02-08T06:08:55.193Z,7.93
2023-02-08T06:11:22.189Z,7.43
2023-02-08T06:13:48.883Z,8.13
2023-02-08T06:16:17.209Z,7.55
2023-02-08T06:18:45.651Z,6.80
2023-02-08T06:21:12.897Z,9.38
2023-02-08T06:23:39.577Z,9.20
2023-02-08T06:26:06.186Z,7.90
2023-02-08T06:28:33.004Z,7.15
2023-02-08T06:30:59.766Z,9.05
2023-02-08T06:33:26.492Z,8.38
2023-02-08T06:35:53.535Z,7.75
2023-02-08T06:38:20.655Z,7.57
2023-02-08T06:40:48.249Z,8.63
2023-02-08T06:43:16.279Z,7.88
2023-02-08T06:45:46.391Z,7.68
2023-02-08T06:48:13.869Z,7.45
2023-02-08T06:50:40.707Z,9.88
2023-02-08T06:53:07.521Z,10.70
2023-02-08T06:55:34.324Z,9.05
2023-02-08T06:58:01.060Z,10.48
2023-02-08T07:00:27.873Z,9.05
2023-02-08T07:02:54.593Z,9.13
2023-02-08T07:05:21.298Z,9.85
2023-02-08T07:07:48.876Z,8.55
2023-02-08T07:10:16.284Z,8.48
2023-02-08T07:12:43.110Z,9.02
2023-02-08T07:15:13.236Z,8.52
2023-02-08T07:17:40.303Z,10.00
2023-02-08T07:20:08.703Z,8.10
2023-02-08T07:22:35.336Z,7.97
2023-02-08T07:25:01.981Z,8.43
2023-02-08T07:27:28.862Z,8.75
2023-02-08T07:29:55.664Z,8.27
2023-02-08T07:32:22.461Z,8.77
2023-02-08T07:34:49.149Z,8.27
2023-02-08T07:37:16.180Z,8.35
2023-02-08T07:39:42.835Z,8.30
2023-02-08T07:42:09.969Z,8.20
2023-02-08T07:44:40.074Z,8.73
2023-02-08T07:47:07.512Z,8.95
2023-02-08T07:49:34.502Z,7.75
2023-02-08T07:52:01.678Z,8.30
2023-02-08T07:54:29.047Z,9.07
2023-02-08T07:56:56.248Z,8.55
2023-02-08T07:59:23.057Z,8.32
2023-02-08T08:01:49.797Z,8.10
2023-02-08T08:04:16.711Z,9.38
2023-02-08T08:06:43.322Z,9.18
2023-02-08T08:09:10.061Z,8.98
2023-02-08T08:11:36.692Z,9.70
2023-02-08T08:14:03.447Z,10.20
2023-02-08T08:16:30.104Z,11.23
2023-02-08T08:18:56.939Z,11.75
2023-02-08T08:21:23.713Z,10.77
2023-02-08T08:23:51.168Z,12.10
2023-02-08T08:26:20.387Z,12.63
2023-02-08T08:28:47.932Z,12.48
2023-02-08T08:31:19.277Z,11.85
2023-02-08T08:33:46.496Z,14.45
2023-02-08T08:36:13.421Z,14.57
2023-02-08T08:38:41.080Z,15.82
2023-02-08T08:41:14.847Z,17.05
2023-02-08T08:43:41.596Z,19.02
2023-02-08T08:46:09.527Z,20.08
2023-02-08T08:48:37.113Z,20.83
2023-02-08T08:51:04.022Z,20.67
2023-02-08T08:53:30.886Z,18.10
2023-02-08T08:55:57.688Z,22.15
2023-02-08T08:58:24.518Z,16.92
2023-02-08T09:00:51.214Z,21.23
2023-02-08T09:03:17.910Z,22.77
2023-02-08T09:05:44.447Z,23.40
2023-02-08T09:08:11.131Z,23.10
2023-02-08T09:10:37.729Z,24.90
2023-02-08T09:13:04.357Z,23.70
2023-02-08T09:15:31.002Z,20.70
2023-02-08T09:17:57.603Z,18.90
2023-02-08T09:20:24.251Z,17.70
2023-02-08T09:22:50.978Z,17.33
2023-02-08T09:25:17.691Z,18.35
2023-02-08T09:27:44.376Z,16.55
2023-02-08T09:30:11.493Z,18.15
2023-02-08T09:32:39.919Z,17.63
2023-02-08T09:35:07.725Z,14.60
2023-02-08T09:37:34.688Z,18.75
2023-02-08T09:40:01.757Z,15.32
2023-02-08T09:42:37.329Z,14.50
2023-02-08T09:45:30.919Z,19.58
2023-02-08T09:48:03.882Z,18.38
2023-02-08T09:50:44.949Z,17.25
2023-02-08T09:53:15.512Z,13.95
2023-02-08T09:55:49.426Z,12.50
2023-02-08T09:58:23.309Z,14.82
2023-02-08T10:00:51.657Z,12.05
2023-02-08T10:03:29.478Z,13.43
2023-02-08T10:05:56.496Z,14.55
2023-02-08T10:08:31.532Z,12.60
2023-02-08T10:11:35.992Z,12.63
2023-02-08T10:14:25.436Z,9.77
2023-02-08T10:17:11.065Z,12.57
2023-02-08T10:19:43.716Z,9.13
2023-02-08T10:22:21.995Z,9.20
2023-02-08T10:24:57.390Z,11.68
2023-02-08T10:27:56.277Z,12.82
2023-02-08T10:31:04.056Z,9.85
2023-02-08T10:34:00.089Z,12.65
2023-02-08T10:36:35.355Z,9.77
2023-02-08T10:39:04.943Z,10.38
2023-02-08T10:41:36.011Z,9.40
2023-02-08T10:44:17.229Z,7.60
2023-02-08T10:47:15.058Z,9.55
2023-02-08T10:49:47.665Z,9.45
2023-02-08T10:52:14.362Z,10.98
2023-02-08T10:54:41.160Z,8.00
2023-02-08T10:57:17.813Z,6.97
2023-02-08T10:59:58.712Z,10.23
2023-02-08T11:02:33.389Z,11.10
2023-02-08T11:05:07.794Z,12.25
2023-02-08T11:07:36.459Z,7.65
2023-02-08T11:10:23.513Z,7.80
2023-02-08T11:13:03.797Z,10.38
2023-02-08T11:15:47.678Z,8.20
2023-02-08T11:18:24.615Z,9.35
2023-02-08T11:20:55.273Z,8.23
2023-02-08T11:23:38.077Z,10.93
2023-02-08T11:26:17.367Z,6.28
2023-02-08T11:28:45.165Z,6.10
2023-02-08T11:31:20.126Z,9.10
2023-02-08T11:34:02.236Z,8.05
2023-02-08T11:36:32.642Z,7.53
2023-02-08T11:39:03.104Z,8.73
2023-02-08T11:41:30.728Z,9.00
2023-02-08T11:44:02.899Z,7.13
2023-02-08T11:46:33.284Z,6.68
2023-02-08T11:49:00.033Z,8.15
2023-02-08T11:51:34.827Z,8.00
2023-02-08T11:54:02.540Z,7.72
2023-02-08T11:56:34.227Z,7.03
2023-02-08T11:59:03.887Z,7.55
2023-02-08T12:01:38.989Z,8.48
2023-02-08T12:04:10.033Z,7.28
2023-02-08T12:06:40.692Z,8.57
2023-02-08T12:09:43.651Z,7.15
2023-02-08T12:12:19.267Z,6.35
2023-02-08T12:14:45.917Z,7.68
2023-02-08T12:17:23.693Z,5.80
2023-02-08T12:20:04.894Z,7.15
2023-02-08T12:22:31.818Z,6.43
2023-02-08T12:25:20.934Z,7.78
2023-02-08T12:28:17.143Z,5.68
2023-02-08T12:31:11.522Z,5.82
2023-02-08T12:33:43.890Z,6.32
2023-02-08T12:39:19.132Z,6.03
2023-02-08T12:42:07.979Z,6.18
2023-02-08T12:44:37.331Z,6.10
2023-02-08T12:47:23.326Z,5.95
2023-02-08T12:50:12.158Z,5.45
2023-02-08T12:52:42.659Z,5.47
2023-02-08T12:55:21.582Z,5.95
2023-02-08T12:57:53.190Z,6.35
2023-02-08T13:00:22.933Z,6.00
2023-02-08T13:03:07.055Z,5.70
2023-02-08T13:06:01.328Z,5.80
2023-02-08T13:08:50.710Z,5.72
2023-02-08T13:11:26.366Z,7.40
2023-02-08T13:14:01.388Z,6.88
2023-02-08T13:16:34.891Z,6.75
2023-02-08T13:19:01.572Z,6.70
2023-02-08T13:21:41.021Z,6.32
2023-02-08T13:24:22.963Z,5.05
2023-02-08T13:26:49.722Z,5.93
2023-02-08T13:29:19.542Z,6.45
2023-02-08T13:32:00.688Z,6.75
2023-02-08T13:34:51.968Z,6.28
2023-02-08T13:37:26.244Z,6.07
2023-02-08T13:40:06.546Z,6.03
2023-02-08T13:42:48.755Z,7.07
2023-02-08T13:45:30.896Z,8.07
2023-02-08T13:48:00.731Z,7.15
2023-02-08T13:50:42.979Z,6.47
2023-02-08T13:53:10.141Z,7.05
2023-02-08T13:55:52.253Z,6.85
2023-02-08T13:58:37.473Z,7.93
2023-02-08T14:01:24.291Z,5.22
2023-02-08T14:04:12.261Z,5.43
2023-02-08T14:06:51.959Z,6.05
2023-02-08T14:09:29.874Z,5.78
2023-02-08T14:12:02.629Z,5.88
2023-02-08T14:14:40.546Z,5.65
2023-02-08T14:17:28.421Z,5.40
2023-02-08T14:20:25.835Z,7.22
2023-02-08T14:22:58.697Z,5.82
2023-02-08T14:25:41.720Z,5.28
2023-02-08T14:28:28.201Z,6.95
2023-02-08T14:30:58.103Z,6.70
2023-02-08T14:33:34.894Z,8.70
2023-02-08T14:36:05.437Z,6.93
2023-02-08T14:38:50.147Z,5.70
2023-02-08T14:41:46.133Z,5.13
2023-02-08T14:44:38.902Z,7.03
2023-02-08T14:47:24.536Z,5.13
2023-02-08T14:50:16.955Z,7.20
2023-02-08T14:52:52.560Z,6.25
2023-02-08T14:55:28.061Z,6.68
2023-02-08T14:58:00.962Z,6.60
2023-02-08T15:00:33.913Z,5.35
2023-02-08T15:03:02.295Z,5.65
2023-02-08T15:05:32.478Z,5.43
2023-02-08T15:08:02.214Z,7.00
2023-02-08T15:10:33.187Z,6.72
2023-02-08T15:13:06.426Z,6.38
2023-02-08T15:15:37.234Z,6.00
2023-02-08T15:18:06.981Z,6.03
2023-02-08T15:20:36.109Z,5.82
2023-02-08T15:23:18.580Z,5.45
2023-02-08T15:26:19.109Z,6.53
2023-02-08T15:28:45.944Z,6.85
2023-02-08T15:31:21.832Z,6.45
2023-02-08T15:33:52.226Z,6.28
2023-02-08T15:36:32.309Z,8.95
2023-02-08T15:39:02.571Z,7.57
2023-02-08T15:41:38.201Z,6.32
2023-02-08T15:44:34.117Z,6.32
2023-02-08T15:47:03.722Z,6.72
2023-02-08T15:49:35.574Z,5.97
2023-02-08T15:52:03.188Z,4.95
2023-02-08T15:54:30.610Z,6.63
2023-02-08T15:57:19.911Z,6.93
2023-02-08T15:59:48.234Z,7.00
2023-02-08T16:02:34.177Z,4.40
2023-02-08T16:05:10.306Z,4.60
2023-02-08T16:07:39.917Z,6.28
2023-02-08T16:10:08.721Z,6.55
2023-02-08T16:12:36.305Z,7.55
2023-02-08T16:15:03.000Z,3.90
2023-02-08T16:17:41.980Z,5.13
2023-02-08T16:20:33.841Z,4.45
2023-02-08T16:23:23.850Z,6.00
2023-02-08T16:25:51.109Z,4.45
2023-02-08T16:28:32.635Z,5.43
2023-02-08T16:31:03.136Z,4.72
2023-02-08T16:33:32.618Z,4.78
2023-02-08T16:36:03.586Z,5.10
2023-02-08T16:38:33.794Z,4.50
2023-02-08T16:41:12.597Z,5.13
2023-02-08T16:43:47.837Z,4.65
2023-02-08T16:46:24.590Z,4.53
2023-02-08T16:48:52.688Z,4.55
2023-02-08T16:51:31.194Z,4.53
2023-02-08T16:54:06.979Z,5.10
2023-02-08T16:56:37.442Z,4.90
2023-02-08T16:59:04.560Z,4.95
2023-02-08T17:01:31.934Z,5.85
2023-02-08T17:03:59.223Z,7.63
2023-02-08T17:06:32.278Z,7.45
2023-02-08T17:09:01.022Z,8.43
2023-02-08T17:11:28.381Z,7.72
2023-02-08T17:13:55.390Z,6.90
2023-02-08T17:16:24.319Z,7.68
2023-02-08T17:18:51.119Z,7.13
2023-02-08T17:21:18.085Z,7.38
2023-02-08T17:23:45.939Z,7.40
2023-02-08T17:26:20.099Z,7.22
2023-02-08T17:28:46.819Z,7.07
2023-02-08T17:31:14.675Z,7.13
2023-02-08T17:33:41.646Z,7.43
2023-02-08T17:36:10.593Z,7.28
2023-02-08T17:38:41.385Z,7.78
2023-02-08T17:41:17.384Z,6.65
2023-02-08T17:43:44.723Z,7.15
2023-02-08T17:46:13.542Z,7.80
2023-02-08T17:48:40.214Z,7.30
2023-02-08T17:51:13.997Z,7.30
2023-02-08T17:53:43.824Z,7.75
2023-02-08T17:56:13.454Z,7.90
2023-02-08T17:58:40.891Z,7.22
2023-02-08T18:01:10.180Z,7.20
2023-02-08T18:03:37.036Z,8.52
2023-02-08T18:06:06.101Z,7.40
2023-02-08T18:08:32.827Z,7.03
2023-02-08T18:11:04.513Z,8.85
2023-02-08T18:13:31.114Z,8.32
2023-02-08T18:15:57.787Z,9.13
2023-02-08T18:18:24.524Z,7.90
2023-02-08T18:20:51.113Z,8.02
2023-02-08T18:23:17.844Z,7.78
2023-02-08T18:25:44.765Z,6.68
2023-02-08T18:28:15.264Z,7.13
2023-02-08T18:30:42.571Z,7.32
2023-02-08T18:33:10.776Z,7.47
2023-02-08T18:35:38.012Z,7.35
2023-02-08T18:38:04.711Z,7.03
2023-02-08T18:40:32.294Z,7.13
2023-02-08T18:42:59.058Z,7.55
2023-02-08T18:45:25.762Z,6.88
2023-02-08T18:47:52.429Z,7.10
2023-02-08T18:50:19.188Z,8.38
2023-02-08T18:52:45.806Z,7.32
2023-02-08T18:55:12.454Z,7.20
2023-02-08T18:57:40.096Z,7.65
2023-02-08T19:00:07.467Z,7.22
2023-02-08T19:02:34.101Z,7.75
2023-02-08T19:05:00.751Z,7.57
2023-02-08T19:07:27.407Z,7.75
2023-02-08T19:09:54.199Z,7.30
2023-02-08T19:12:22.087Z,7.88
2023-02-08T19:14:50.956Z,7.70
2023-02-08T19:17:18.095Z,7.68
2023-02-08T19:19:45.136Z,6.90
2023-02-08T19:22:12.268Z,7.40
2023-02-08T19:24:39.094Z,7.10
2023-02-08T19:27:05.827Z,7.65
2023-02-08T19:29:34.529Z,7.10
2023-02-08T19:32:01.363Z,8.45
2023-02-08T19:34:28.181Z,9.02
2023-02-08T19:36:55.310Z,8.07
2023-02-08T19:39:27.180Z,9.40
2023-02-08T19:41:55.092Z,7.35
2023-02-08T19:44:22.794Z,7.55
2023-02-08T19:46:54.375Z,9.45
2023-02-08T19:49:22.547Z,10.82
2023-02-08T19:51:49.450Z,9.80
2023-02-08T19:54:18.241Z,6.55
2023-02-08T19:56:46.151Z,7.00
2023-02-08T19:59:27.817Z,7.53
2023-02-08T20:01:55.041Z,7.88
2023-02-08T20:04:22.253Z,8.70
2023-02-08T20:06:51.906Z,7.68
2023-02-08T20:09:18.648Z,7.22
2023-02-08T20:12:00.732Z,7.57
2023-02-08T20:14:31.139Z,7.22
2023-02-08T20:16:57.962Z,7.15
2023-02-08T20:19:25.375Z,7.40
2023-02-08T20:21:52.323Z,7.85
2023-02-08T20:24:19.265Z,7.15
2023-02-08T20:26:47.485Z,7.28
2023-02-08T20:29:14.650Z,7.78
2023-02-08T20:31:43.693Z,7.45
2023-02-08T20:34:13.464Z,7.40
2023-02-08T20:36:45.100Z,6.43
2023-02-08T20:39:18.340Z,8.35
2023-02-08T20:41:46.003Z,7.38
2023-02-08T20:44:13.965Z,8.07
2023-02-08T20:46:41.422Z,7.75
2023-02-08T20:49:08.077Z,8.75
2023-02-08T20:51:35.569Z,7.30
2023-02-08T20:54:03.501Z,7.60
2023-02-08T20:56:33.939Z,8.82
2023-02-08T20:59:05.578Z,7.25
2023-02-08T21:01:34.576Z,7.20
2023-02-08T21:04:01.932Z,8.35
2023-02-08T21:06:31.399Z,8.40
2023-02-08T21:09:00.912Z,8.20
2023-02-08T21:11:31.186Z,8.02
2023-02-08T21:13:58.419Z,8.50
2023-02-08T21:16:25.852Z,8.80
2023-02-08T21:18:52.825Z,8.48
2023-02-08T21:21:20.238Z,8.63
2023-02-08T21:23:47.025Z,8.38
2023-02-08T21:26:16.367Z,8.57
2023-02-08T21:28:44.023Z,8.63
2023-02-08T21:31:16.788Z,8.02
2023-02-08T21:33:44.624Z,7.70
2023-02-08T21:36:17.397Z,8.70
2023-02-08T21:38:44.765Z,8.52
2023-02-08T21:41:33.038Z,8.18
2023-02-08T21:44:03.225Z,7.70
2023-02-08T21:46:31.959Z,8.38
2023-02-08T21:49:17.414Z,7.70
2023-02-08T21:52:03.537Z,7.97
2023-02-08T21:54:41.855Z,7.97
2023-02-08T21:57:23.228Z,8.45
2023-02-08T21:59:52.382Z,8.23
2023-02-08T22:02:21.990Z,8.90
2023-02-08T22:04:49.232Z,7.53
2023-02-08T22:07:16.250Z,7.78
2023-02-08T22:09:43.013Z,8.30
2023-02-08T22:12:18.040Z,8.25
2023-02-08T22:14:44.701Z,8.18
2023-02-08T22:17:11.486Z,7.88
2023-02-08T22:19:42.568Z,8.00
2023-02-08T22:22:10.544Z,7.30
2023-02-08T22:24:37.338Z,7.35
2023-02-08T22:27:04.135Z,7.70
2023-02-08T22:29:30.973Z,7.03
2023-02-08T22:31:57.734Z,7.63
2023-02-08T22:34:26.835Z,8.48
2023-02-08T22:36:53.648Z,7.57
2023-02-08T22:39:20.749Z,7.05
2023-02-08T22:41:47.530Z,8.13
2023-02-08T22:44:14.336Z,8.00
2023-02-08T22:46:41.153Z,7.75
2023-02-08T22:49:08.950Z,7.90
2023-02-08T22:51:35.826Z,7.90
2023-02-08T22:54:02.681Z,8.18
2023-02-08T22:56:29.659Z,7.53
2023-02-08T22:58:56.712Z,7.20
2023-02-08T23:01:23.409Z,8.05
2023-02-08T23:03:50.216Z,7.95
2023-02-08T23:06:17.712Z,8.30
2023-02-08T23:08:44.865Z,7.97
2023-02-08T23:11:13.242Z,7.85
2023-02-08T23:13:39.965Z,7.88
2023-02-08T23:16:06.970Z,7.63
2023-02-08T23:18:35.982Z,8.10
2023-02-08T23:21:08.630Z,7.47
2023-02-08T23:26:08.508Z,7.57
2023-02-08T23:28:35.577Z,7.03
2023-02-08T23:31:08.555Z,7.80
2023-02-08T23:33:36.735Z,8.23
2023-02-08T23:36:12.141Z,7.90
2023-02-08T23:38:39.492Z,7.95
2023-02-08T23:41:09.711Z,7.35
2023-02-08T23:43:36.400Z,9.73
2023-02-08T23:46:13.750Z,8.38
2023-02-08T23:48:40.786Z,7.05
2023-02-08T23:51:08.505Z,9.05
2023-02-08T23:53:36.429Z,7.88
2023-02-08T23:56:16.418Z,7.90
2023-02-08T23:58:45.416Z,7.15
